Lalas, Greece

6:38 AM EEST on March 29, 2017 (GMT +0300)
KALYVIA KARYSTIAS | | Change Station

Elev 495 ft 38.04 °N, 24.41 °E | Updated 5 minutes ago

Overcast
Overcast
53.8 °F
Feels Like 53.8 °F
N
16.8
Wind Variable Wind from East
Gusts 21.3 mph

Today
High -- | Low -- °F
--% Chance of Precip.
Yesterday
High -- | Low -- °F
Precip. -- in
Pressure 30.09 in
Visibility -9999.0 miles
Clouds
Dew Point 44 °F
Humidity 68%
Rainfall 0.00 in
Snow Depth Not available.
7:12 AM 7:42 PM
New Moon, 1% visible
METAR LGAV 290320Z 02007KT CAVOK 10/02 Q1019 NOSIG
Pressure 30.09 in
Visibility -9999.0 miles
Clouds
Dew Point 44 °F
Humidity 68%
Rainfall 0.00 in
Snow Depth Not available.
7:12 AM 7:42 PM
New Moon, 1% visible
METAR LGAV 290320Z 02007KT CAVOK 10/02 Q1019 NOSIG

Get Severe Weather Alerts

Thanks for signing up!

Be on the lookout for a verification email in your inbox.

You'll start receiving the daily forecast at 8 AM.

×

10-Day Weather Forecast

×

Almanac

Astronomy

Mar. 29, 2017 Rise Set
Actual Time
Civil Twilight
Nautical Twilight
Astronomical Twilight
Moon
Length of Visible Light
Length of Day
Tomorrow will be .
, % of the Moon is Illuminated

Today's Extremes

Country Highs Country Lows

Community

WunderPhotos

Upload Photos

1,962,540 photos uploaded!

WunderBlog® & News

Nearby

Air Quality

  Air Quality AQ Index Pollutant
Not available.

Snow Depth

Station Depth Elevation

Earthquake Activity

City Distance Mag. Time & Date
Minimum magnitude displayed is 2.5.

Earthquake Activity

City Distance Mag. Time & Date
Minimum magnitude displayed is 2.5.

Coastal Water Temperatures

Place Temperature

Stations

Nearby Weather Stations

Station Location Temp. Windchill Dew Point Humidity Wind Precip. Elev Updated Type